Archival Weather

Chicago O'Hare International

Chicago, Illinois (KORD)

Report from: Thursday, March 21, 2024 8:51 PM CDT
Current time: Tuesday, May 21, 2024 12:01 PM CDT

Current weather – Weather history – Daily summaries
Weather forecast

Temperature2.2°C (36.0°F)
Wind chill-2.0°C (28.5°F)
Dew point-6.1°C (21.0°F)
Winds 9 kts (4.6 m/s, 10.4 mph) East (100°)
Visibility10 mi. (16.1 km)
Clouds Few clouds 7,500 ft. (2,286 m)
Scattered clouds 11,000 ft. (3,353 m)
Ceiling: Broken clouds 15,000 ft. (4,572 m)
Altimeter30.21 in.Hg (1023 mB)
Relative humidity54 %
Density altitude-1,848 ft. (-563 m)
Sea-level pressure102.4 kPa (1024 mB, 30.23 in.Hg)
Remarks System requires maintenance
Automated weather observing station with precipitation discriminator
Flight conditions Visual Meteorological Conditions
Raw dataKORD 220151Z 10009KT 10SM FEW075 SCT110 BKN150 02/M06 A3021 RMK AO2 SLP237 T00221061 $
An error has occurred. This application may no longer respond until reloaded. Reload 🗙